createdAt,value
2017-04-15T00:00:11.042Z,0
2017-04-15T00:00:43.299Z,0
2017-04-15T00:01:15.566Z,0
2017-04-15T00:01:47.868Z,0
2017-04-15T00:02:21.042Z,0
2017-04-15T00:02:53.312Z,0
2017-04-15T00:03:25.576Z,0
2017-04-15T00:03:57.803Z,0
2017-04-15T00:04:30.062Z,0
2017-04-15T00:05:02.319Z,0
2017-04-15T00:05:34.711Z,0
2017-04-15T00:06:08.693Z,0
2017-04-15T00:06:41.603Z,0
2017-04-15T00:07:13.857Z,0
2017-04-15T00:07:46.109Z,0
2017-04-15T00:08:18.379Z,0
2017-04-15T00:08:51.549Z,0
2017-04-15T00:09:23.782Z,0
2017-04-15T00:09:56.546Z,0
2017-04-15T00:10:28.796Z,0
2017-04-15T00:11:01.064Z,0
2017-04-15T00:11:33.328Z,0
2017-04-15T00:12:05.703Z,0
2017-04-15T00:12:38.110Z,0
2017-04-15T00:13:10.521Z,0
2017-04-15T00:13:42.953Z,0
2017-04-15T00:14:15.427Z,0
2017-04-15T00:14:47.838Z,0
2017-04-15T00:15:20.261Z,0
2017-04-15T00:15:52.671Z,0
2017-04-15T00:16:25.354Z,0
2017-04-15T00:16:57.771Z,0
2017-04-15T00:17:30.307Z,0
2017-04-15T00:18:02.715Z,0
2017-04-15T00:18:35.126Z,0
2017-04-15T00:19:07.694Z,0
2017-04-15T00:19:40.131Z,0
2017-04-15T00:20:12.574Z,0
2017-04-15T00:20:45.029Z,0
2017-04-15T00:21:17.426Z,0
2017-04-15T00:21:49.847Z,0
2017-04-15T00:22:22.261Z,0
2017-04-15T00:22:54.666Z,0
2017-04-15T00:23:27.096Z,0
2017-04-15T00:23:59.491Z,0
2017-04-15T00:24:31.902Z,0
2017-04-15T00:25:04.330Z,0
2017-04-15T00:25:36.753Z,0
2017-04-15T00:26:09.189Z,0
2017-04-15T00:26:41.598Z,0
2017-04-15T00:27:14.031Z,0
2017-04-15T00:27:46.425Z,0
2017-04-15T00:28:18.845Z,0
2017-04-15T00:28:51.235Z,0
2017-04-15T00:29:23.646Z,0
2017-04-15T00:29:56.064Z,0
2017-04-15T00:30:28.486Z,0
2017-04-15T00:31:00.894Z,0
2017-04-15T00:31:33.321Z,0
2017-04-15T00:32:05.743Z,0
2017-04-15T00:32:38.165Z,0
2017-04-15T00:33:11.040Z,0
2017-04-15T00:33:43.638Z,0
2017-04-15T00:34:16.064Z,0
2017-04-15T00:34:48.637Z,0
2017-04-15T00:35:21.055Z,0
2017-04-15T00:35:53.466Z,0
2017-04-15T00:36:25.927Z,0
2017-04-15T00:36:58.361Z,0
2017-04-15T00:37:30.793Z,0
2017-04-15T00:38:03.213Z,0
2017-04-15T00:38:35.619Z,0
2017-04-15T00:39:08.027Z,0
2017-04-15T00:39:40.435Z,0
2017-04-15T00:40:12.862Z,0
2017-04-15T00:40:45.267Z,0
2017-04-15T00:41:17.700Z,0
2017-04-15T00:41:50.122Z,0
2017-04-15T00:42:22.528Z,0
2017-04-15T00:42:54.934Z,0
2017-04-15T00:43:27.346Z,0
2017-04-15T00:43:59.769Z,0
2017-04-15T00:44:32.197Z,0
2017-04-15T00:45:04.614Z,0
2017-04-15T00:45:37.058Z,0
2017-04-15T00:46:09.526Z,0
2017-04-15T00:46:41.949Z,0
2017-04-15T00:47:14.381Z,0
2017-04-15T00:47:46.797Z,0
2017-04-15T00:48:19.212Z,0
2017-04-15T00:48:51.631Z,0
2017-04-15T00:49:24.046Z,0
2017-04-15T00:49:56.458Z,0
2017-04-15T00:50:28.868Z,0
2017-04-15T00:51:01.296Z,0
2017-04-15T00:51:33.724Z,0
2017-04-15T00:52:06.059Z,0
2017-04-15T00:52:38.333Z,0
2017-04-15T00:53:10.619Z,0
2017-04-15T00:53:42.866Z,0
2017-04-15T00:54:15.129Z,0
2017-04-15T00:54:47.378Z,0
2017-04-15T00:55:19.668Z,0
2017-04-15T00:55:51.903Z,0
2017-04-15T00:56:24.156Z,0
2017-04-15T00:56:56.395Z,0
2017-04-15T00:57:28.661Z,0
2017-04-15T00:58:01.574Z,0
2017-04-15T00:58:33.843Z,0
2017-04-15T00:59:06.104Z,0
2017-04-15T00:59:38.351Z,0
2017-04-15T01:00:10.594Z,0
2017-04-15T01:00:42.864Z,0
2017-04-15T01:01:15.694Z,0
2017-04-15T01:01:47.939Z,0
2017-04-15T01:02:20.250Z,0
2017-04-15T01:02:52.571Z,0
2017-04-15T01:03:24.870Z,0
2017-04-15T01:03:57.174Z,0
2017-04-15T01:04:29.471Z,0
2017-04-15T01:05:01.775Z,0
2017-04-15T01:05:34.074Z,0
2017-04-15T01:06:06.407Z,0
2017-04-15T01:06:38.718Z,0
2017-04-15T01:07:11.022Z,0
2017-04-15T01:07:43.331Z,0
2017-04-15T01:08:15.642Z,0
2017-04-15T01:08:47.937Z,0
2017-04-15T01:09:20.255Z,0
2017-04-15T01:09:52.565Z,0
2017-04-15T01:10:24.868Z,0
2017-04-15T01:10:57.183Z,0
2017-04-15T01:11:29.481Z,0
2017-04-15T01:12:01.778Z,0
2017-04-15T01:12:34.079Z,0
2017-04-15T01:13:06.381Z,0
2017-04-15T01:13:38.727Z,0
2017-04-15T01:14:11.208Z,0
2017-04-15T01:14:43.531Z,0
2017-04-15T01:15:15.836Z,0
2017-04-15T01:15:48.146Z,0
2017-04-15T01:16:20.436Z,0
2017-04-15T01:16:52.751Z,0
2017-04-15T01:17:25.052Z,0
2017-04-15T01:17:57.359Z,0
2017-04-15T01:18:29.667Z,0
2017-04-15T01:19:01.964Z,0
2017-04-15T01:19:34.267Z,0
2017-04-15T01:20:06.588Z,0
2017-04-15T01:20:38.898Z,0
2017-04-15T01:21:11.197Z,0
2017-04-15T01:21:43.506Z,0
2017-04-15T01:22:15.808Z,0
2017-04-15T01:22:48.107Z,0
2017-04-15T01:23:20.412Z,0
2017-04-15T01:23:52.716Z,0
2017-04-15T01:24:25.022Z,0
2017-04-15T01:24:57.331Z,0
2017-04-15T01:25:29.636Z,0
2017-04-15T01:26:02.161Z,0
2017-04-15T01:26:34.617Z,0
2017-04-15T01:27:06.919Z,0
2017-04-15T01:27:39.216Z,0
2017-04-15T01:28:11.523Z,0
2017-04-15T01:28:43.844Z,0
2017-04-15T01:29:16.145Z,0
2017-04-15T01:29:48.443Z,0
2017-04-15T01:30:20.758Z,0
2017-04-15T01:30:53.079Z,0
2017-04-15T01:31:25.386Z,0
2017-04-15T01:31:57.688Z,0
2017-04-15T01:32:29.988Z,0
2017-04-15T01:33:02.293Z,0
2017-04-15T01:33:34.608Z,0
2017-04-15T01:34:06.911Z,0
2017-04-15T01:34:39.230Z,0
2017-04-15T01:35:11.522Z,0
2017-04-15T01:35:43.816Z,0
2017-04-15T01:36:16.136Z,0
2017-04-15T01:36:48.444Z,0
2017-04-15T01:37:20.750Z,0
2017-04-15T01:37:53.042Z,0
2017-04-15T01:38:25.409Z,0
2017-04-15T01:38:57.701Z,0
2017-04-15T01:39:30.096Z,0
2017-04-15T01:40:02.408Z,0
2017-04-15T01:40:34.722Z,0
2017-04-15T01:41:07.062Z,0
2017-04-15T01:41:39.385Z,0
2017-04-15T01:42:11.663Z,0
2017-04-15T01:42:43.898Z,0
2017-04-15T01:43:17.091Z,0
2017-04-15T01:43:49.333Z,0
2017-04-15T01:44:22.199Z,0
2017-04-15T01:44:54.451Z,0
2017-04-15T01:45:26.715Z,0
2017-04-15T01:45:58.955Z,0
2017-04-15T01:46:31.186Z,0
2017-04-15T01:47:03.429Z,0
2017-04-15T01:47:36.705Z,0
2017-04-15T01:48:09.035Z,0
2017-04-15T01:48:41.282Z,0
2017-04-15T01:49:13.553Z,0
2017-04-15T01:49:46.663Z,0
2017-04-15T01:50:18.907Z,0
2017-04-15T01:50:51.177Z,0
2017-04-15T01:51:24.257Z,0
2017-04-15T01:51:56.514Z,0
2017-04-15T01:52:28.754Z,0
2017-04-15T01:53:01.036Z,0
2017-04-15T01:53:33.295Z,0
2017-04-15T01:54:05.553Z,0
2017-04-15T01:54:37.818Z,0
2017-04-15T01:55:10.633Z,0
2017-04-15T01:55:43.008Z,0
2017-04-15T01:56:15.257Z,0
2017-04-15T01:56:47.505Z,0
2017-04-15T01:57:19.780Z,0
2017-04-15T01:57:52.709Z,0
2017-04-15T01:58:24.967Z,0
2017-04-15T01:58:57.202Z,0
2017-04-15T01:59:29.462Z,0
2017-04-15T02:00:01.715Z,0
2017-04-15T02:00:33.985Z,0
2017-04-15T02:01:06.256Z,0
2017-04-15T02:01:38.544Z,0
2017-04-15T02:02:10.825Z,0
2017-04-15T02:02:43.122Z,0
2017-04-15T02:03:15.445Z,0
2017-04-15T02:03:47.757Z,0
2017-04-15T02:04:20.066Z,0
2017-04-15T02:04:52.378Z,0
2017-04-15T02:05:24.673Z,0
2017-04-15T02:05:56.982Z,0
2017-04-15T02:06:29.281Z,0
2017-04-15T02:07:01.588Z,0
2017-04-15T02:07:33.897Z,0
2017-04-15T02:08:06.209Z,0
2017-04-15T02:08:38.768Z,0
2017-04-15T02:09:11.073Z,0
2017-04-15T02:09:43.379Z,0
2017-04-15T02:10:15.720Z,0
2017-04-15T02:10:48.009Z,0
2017-04-15T02:11:20.304Z,0
2017-04-15T02:11:52.597Z,0
2017-04-15T02:12:24.900Z,0
2017-04-15T02:12:57.212Z,0
2017-04-15T02:13:29.517Z,0
2017-04-15T02:14:01.814Z,0
2017-04-15T02:14:34.111Z,0
2017-04-15T02:15:06.418Z,0
2017-04-15T02:15:38.734Z,0
2017-04-15T02:16:11.056Z,0
2017-04-15T02:16:43.375Z,0
2017-04-15T02:17:15.677Z,0
2017-04-15T02:17:47.968Z,0
2017-04-15T02:18:20.275Z,0
2017-04-15T02:18:52.583Z,0
2017-04-15T02:19:24.884Z,0
2017-04-15T02:19:57.207Z,0
2017-04-15T02:20:29.513Z,0
2017-04-15T02:21:01.806Z,0
2017-04-15T02:21:34.105Z,0
2017-04-15T02:22:06.405Z,0
2017-04-15T02:22:38.725Z,0
2017-04-15T02:23:11.383Z,0
2017-04-15T02:23:43.869Z,0
2017-04-15T02:24:16.195Z,0
2017-04-15T02:24:48.496Z,0
2017-04-15T02:25:20.810Z,0
2017-04-15T02:25:53.101Z,0
2017-04-15T02:26:25.393Z,0
2017-04-15T02:26:57.698Z,0
2017-04-15T02:27:30.005Z,0
2017-04-15T02:28:02.317Z,0
2017-04-15T02:28:34.656Z,0
2017-04-15T02:29:06.958Z,0
2017-04-15T02:29:39.256Z,0
2017-04-15T02:30:11.545Z,0
2017-04-15T02:30:43.848Z,0
2017-04-15T02:31:16.143Z,0
2017-04-15T02:31:48.452Z,0
2017-04-15T02:32:20.730Z,0
2017-04-15T02:32:53.075Z,0
2017-04-15T02:33:25.324Z,0
2017-04-15T02:33:57.591Z,0
2017-04-15T02:34:30.009Z,0
2017-04-15T02:35:02.255Z,0
2017-04-15T02:35:34.862Z,0
2017-04-15T02:36:07.290Z,0
2017-04-15T02:36:39.676Z,0
2017-04-15T02:37:11.921Z,0
2017-04-15T02:37:44.166Z,0
2017-04-15T02:38:17.249Z,0
2017-04-15T02:38:49.496Z,0
2017-04-15T02:39:21.746Z,0
2017-04-15T02:39:54.004Z,0
2017-04-15T02:40:26.296Z,0
2017-04-15T02:40:58.606Z,0
2017-04-15T02:41:30.847Z,0
2017-04-15T02:42:03.139Z,0
2017-04-15T02:42:35.442Z,0
2017-04-15T02:43:07.748Z,0
2017-04-15T02:43:40.056Z,0
2017-04-15T02:44:12.371Z,0
2017-04-15T02:44:44.692Z,0
2017-04-15T02:45:16.992Z,0
2017-04-15T02:45:49.286Z,0
2017-04-15T02:46:21.595Z,0
2017-04-15T02:46:53.893Z,0
2017-04-15T02:47:26.197Z,0
2017-04-15T02:47:58.830Z,0
2017-04-15T02:48:31.169Z,0
2017-04-15T02:49:03.481Z,0
2017-04-15T02:49:35.793Z,0
2017-04-15T02:50:08.087Z,0
2017-04-15T02:50:40.601Z,0
2017-04-15T02:51:12.897Z,0
2017-04-15T02:51:45.205Z,0
2017-04-15T02:52:17.480Z,0
2017-04-15T02:52:49.712Z,0
2017-04-15T02:53:21.958Z,0
2017-04-15T02:53:54.211Z,0
2017-04-15T02:54:26.459Z,0
2017-04-15T02:54:58.709Z,0
2017-04-15T02:55:30.960Z,0
2017-04-15T02:56:03.197Z,0
2017-04-15T02:56:35.447Z,0
2017-04-15T02:57:07.696Z,0
2017-04-15T02:57:39.961Z,0
2017-04-15T02:58:12.230Z,0
2017-04-15T02:58:44.496Z,0
2017-04-15T02:59:16.746Z,0
2017-04-15T02:59:49.676Z,0
2017-04-15T03:00:22.168Z,0
2017-04-15T03:00:54.638Z,0
2017-04-15T03:01:26.892Z,0
2017-04-15T03:01:59.288Z,0
2017-04-15T03:02:31.527Z,0
2017-04-15T03:03:03.782Z,0
2017-04-15T03:03:36.014Z,0
2017-04-15T03:04:09.139Z,0
2017-04-15T03:04:41.403Z,0
2017-04-15T03:05:13.636Z,0
2017-04-15T03:05:46.027Z,0
2017-04-15T03:06:18.274Z,0
2017-04-15T03:06:50.524Z,0
2017-04-15T03:07:22.786Z,0
2017-04-15T03:07:55.023Z,0
2017-04-15T03:08:27.268Z,0
2017-04-15T03:08:59.538Z,0
2017-04-15T03:09:31.786Z,0
2017-04-15T03:10:04.033Z,0
2017-04-15T03:10:36.288Z,0
2017-04-15T03:11:08.518Z,0
2017-04-15T03:11:40.745Z,0
2017-04-15T03:12:13.038Z,0
2017-04-15T03:12:45.449Z,0
2017-04-15T03:13:17.709Z,0
2017-04-15T03:13:49.948Z,0
2017-04-15T03:14:22.189Z,0
2017-04-15T03:14:54.464Z,0
2017-04-15T03:15:27.263Z,0
2017-04-15T03:15:59.538Z,0
2017-04-15T03:16:31.788Z,0
2017-04-15T03:17:04.048Z,0
2017-04-15T03:17:36.283Z,0
2017-04-15T03:18:08.542Z,0
2017-04-15T03:18:40.781Z,0
2017-04-15T03:19:13.797Z,0
2017-04-15T03:19:46.678Z,0
2017-04-15T03:20:18.918Z,0
2017-04-15T03:20:52.097Z,0
2017-04-15T03:21:24.330Z,0
2017-04-15T03:21:56.578Z,0
2017-04-15T03:22:28.856Z,0
2017-04-15T03:23:01.163Z,0
2017-04-15T03:23:33.467Z,0
2017-04-15T03:24:05.776Z,0
2017-04-15T03:24:38.082Z,0
2017-04-15T03:25:10.381Z,0
2017-04-15T03:25:42.922Z,0
2017-04-15T03:26:15.522Z,0
2017-04-15T03:26:47.827Z,0
2017-04-15T03:27:20.123Z,0
2017-04-15T03:27:52.418Z,0
2017-04-15T03:28:24.717Z,0
2017-04-15T03:28:57.016Z,0
2017-04-15T03:29:29.321Z,0
2017-04-15T03:30:01.633Z,0
2017-04-15T03:30:33.970Z,0
2017-04-15T03:31:06.270Z,0
2017-04-15T03:31:38.572Z,0
2017-04-15T03:32:10.871Z,0
2017-04-15T03:32:43.177Z,0
2017-04-15T03:33:15.482Z,0
2017-04-15T03:33:47.792Z,0
2017-04-15T03:34:20.096Z,0
2017-04-15T03:34:52.394Z,0
2017-04-15T03:35:24.713Z,0
2017-04-15T03:35:57.058Z,0
2017-04-15T03:36:29.882Z,0
2017-04-15T03:37:02.360Z,0
2017-04-15T03:37:35.060Z,0
2017-04-15T03:38:07.377Z,0
2017-04-15T03:38:39.675Z,0
2017-04-15T03:39:11.983Z,0
2017-04-15T03:39:44.307Z,0
2017-04-15T03:40:16.618Z,0
2017-04-15T03:40:48.928Z,0
2017-04-15T03:41:21.227Z,0
2017-04-15T03:41:53.518Z,0
2017-04-15T03:42:25.810Z,0
2017-04-15T03:42:58.118Z,0
2017-04-15T03:43:30.414Z,0
2017-04-15T03:44:02.717Z,0
2017-04-15T03:44:35.014Z,0
2017-04-15T03:45:07.303Z,0
2017-04-15T03:45:39.600Z,0
2017-04-15T03:46:11.915Z,0
2017-04-15T03:46:44.230Z,0
2017-04-15T03:47:16.536Z,0
2017-04-15T03:47:48.844Z,0
2017-04-15T03:48:21.151Z,0
2017-04-15T03:48:53.784Z,0
2017-04-15T03:49:26.106Z,0
2017-04-15T03:49:58.394Z,0
2017-04-15T03:50:30.696Z,0
2017-04-15T03:51:03.000Z,0
2017-04-15T03:51:35.326Z,0
2017-04-15T03:52:07.634Z,0
2017-04-15T03:52:39.938Z,0
2017-04-15T03:53:12.239Z,0
2017-04-15T03:53:44.546Z,0
2017-04-15T03:54:16.860Z,0
2017-04-15T03:54:49.161Z,0
2017-04-15T03:55:21.454Z,0
2017-04-15T03:55:53.759Z,0
2017-04-15T03:56:26.076Z,0
2017-04-15T03:56:58.383Z,0
2017-04-15T03:57:30.691Z,0
2017-04-15T03:58:03.004Z,0
2017-04-15T03:58:35.308Z,0
2017-04-15T03:59:07.616Z,0
2017-04-15T03:59:39.915Z,0
2017-04-15T04:00:12.206Z,0
2017-04-15T04:00:44.508Z,0
2017-04-15T04:01:16.815Z,0
2017-04-15T04:01:49.119Z,0
2017-04-15T04:02:22.312Z,0
2017-04-15T04:02:54.660Z,0
2017-04-15T04:03:26.916Z,0
2017-04-15T04:03:59.184Z,0
2017-04-15T04:04:31.439Z,0
2017-04-15T04:05:03.702Z,0
2017-04-15T04:05:36.008Z,0
2017-04-15T04:06:08.255Z,0
2017-04-15T04:06:40.513Z,0
2017-04-15T04:07:13.601Z,0
2017-04-15T04:07:45.871Z,0
2017-04-15T04:08:18.130Z,0
2017-04-15T04:08:50.393Z,0
2017-04-15T04:09:22.661Z,4
2017-04-15T04:09:54.910Z,4
2017-04-15T04:10:27.153Z,4
2017-04-15T04:10:59.400Z,4
2017-04-15T04:11:31.647Z,4
2017-04-15T04:12:03.935Z,0
2017-04-15T04:12:36.497Z,0
2017-04-15T04:13:08.819Z,0
2017-04-15T04:13:41.363Z,0
2017-04-15T04:14:13.785Z,4
2017-04-15T04:14:46.094Z,4
2017-04-15T04:15:18.408Z,4
2017-04-15T04:15:50.711Z,4
2017-04-15T04:16:23.012Z,4
2017-04-15T04:16:55.306Z,4
2017-04-15T04:17:27.611Z,4
2017-04-15T04:17:59.913Z,4
2017-04-15T04:18:32.217Z,4
2017-04-15T04:19:04.519Z,4
2017-04-15T04:19:36.834Z,4
2017-04-15T04:20:09.156Z,8
2017-04-15T04:20:41.489Z,8
2017-04-15T04:21:13.813Z,8
2017-04-15T04:21:46.120Z,8
2017-04-15T04:22:18.437Z,8
2017-04-15T04:22:50.736Z,8
2017-04-15T04:23:23.039Z,12
2017-04-15T04:23:55.352Z,8
2017-04-15T04:24:27.665Z,12
2017-04-15T04:24:59.975Z,12
2017-04-15T04:25:32.273Z,12
2017-04-15T04:26:04.571Z,12
2017-04-15T04:26:36.879Z,12
2017-04-15T04:27:09.170Z,8
2017-04-15T04:27:41.490Z,12
2017-04-15T04:28:13.794Z,12
2017-04-15T04:28:46.123Z,12
2017-04-15T04:29:18.410Z,12
2017-04-15T04:29:50.709Z,12
2017-04-15T04:30:22.998Z,12
2017-04-15T04:30:55.314Z,12
2017-04-15T04:31:27.618Z,12
2017-04-15T04:31:59.931Z,12
2017-04-15T04:32:32.244Z,16
2017-04-15T04:33:04.544Z,16
2017-04-15T04:33:36.867Z,12
2017-04-15T04:34:09.181Z,16
2017-04-15T04:34:41.487Z,16
2017-04-15T04:35:14.164Z,20
2017-04-15T04:35:46.447Z,28
2017-04-15T04:36:18.744Z,32
2017-04-15T04:36:51.424Z,32
2017-04-15T04:37:23.727Z,32
2017-04-15T04:37:56.220Z,36
2017-04-15T04:38:28.524Z,32
2017-04-15T04:39:00.829Z,28
2017-04-15T04:39:33.137Z,28
2017-04-15T04:40:05.437Z,28
2017-04-15T04:40:37.741Z,32
2017-04-15T04:41:10.033Z,36
2017-04-15T04:41:42.336Z,32
2017-04-15T04:42:14.648Z,36
2017-04-15T04:42:46.947Z,36
2017-04-15T04:43:19.256Z,40
2017-04-15T04:43:51.558Z,44
2017-04-15T04:44:23.862Z,48
2017-04-15T04:44:56.174Z,52
2017-04-15T04:45:28.498Z,52
2017-04-15T04:46:00.819Z,56
2017-04-15T04:46:33.127Z,52
2017-04-15T04:47:05.426Z,56
2017-04-15T04:47:37.930Z,56
2017-04-15T04:48:10.237Z,64
2017-04-15T04:48:42.728Z,72
2017-04-15T04:49:15.418Z,76
2017-04-15T04:49:47.718Z,80
2017-04-15T04:50:20.034Z,84
2017-04-15T04:50:52.349Z,84
2017-04-15T04:51:24.649Z,92
2017-04-15T04:51:56.958Z,96
2017-04-15T04:52:29.251Z,96
2017-04-15T04:53:01.548Z,100
2017-04-15T04:53:33.874Z,100
2017-04-15T04:54:06.186Z,104
2017-04-15T04:54:38.487Z,108
2017-04-15T04:55:10.777Z,104
2017-04-15T04:55:43.080Z,108
2017-04-15T04:56:15.382Z,108
2017-04-15T04:56:47.693Z,108
2017-04-15T04:57:19.997Z,108
2017-04-15T04:57:52.331Z,104
2017-04-15T04:58:24.631Z,100
2017-04-15T04:58:57.023Z,96
2017-04-15T04:59:29.352Z,92
2017-04-15T05:00:01.725Z,88
2017-04-15T05:00:34.223Z,84
2017-04-15T05:01:06.775Z,76
2017-04-15T05:01:39.184Z,80
2017-04-15T05:02:11.489Z,84
2017-04-15T05:02:43.806Z,92
2017-04-15T05:03:16.126Z,88
2017-04-15T05:03:48.434Z,84
2017-04-15T05:04:20.755Z,84
2017-04-15T05:04:53.062Z,80
2017-04-15T05:05:25.357Z,88
2017-04-15T05:05:57.657Z,88
2017-04-15T05:06:29.950Z,108
2017-04-15T05:07:02.242Z,144
2017-04-15T05:07:34.565Z,184
2017-04-15T05:08:06.869Z,188
2017-04-15T05:08:39.182Z,176
2017-04-15T05:09:11.487Z,168
2017-04-15T05:09:43.787Z,160
2017-04-15T05:10:16.072Z,164
2017-04-15T05:10:48.375Z,156
2017-04-15T05:11:20.887Z,160
2017-04-15T05:11:53.317Z,156
2017-04-15T05:12:25.713Z,172
2017-04-15T05:12:58.018Z,172
2017-04-15T05:13:30.326Z,176
2017-04-15T05:14:02.640Z,160
2017-04-15T05:14:34.963Z,140
2017-04-15T05:15:07.278Z,132
2017-04-15T05:15:39.569Z,136
2017-04-15T05:16:11.868Z,132
2017-04-15T05:16:44.168Z,128
2017-04-15T05:17:16.473Z,144
2017-04-15T05:17:48.785Z,160
2017-04-15T05:18:21.096Z,140
2017-04-15T05:18:53.404Z,140
2017-04-15T05:19:25.699Z,156
2017-04-15T05:19:58.000Z,196
2017-04-15T05:20:30.305Z,272
2017-04-15T05:21:02.612Z,304
2017-04-15T05:21:34.914Z,336
2017-04-15T05:22:07.418Z,340
2017-04-15T05:22:39.732Z,320
2017-04-15T05:23:12.315Z,312
2017-04-15T05:23:44.619Z,304
2017-04-15T05:24:16.914Z,276
2017-04-15T05:24:49.214Z,236
2017-04-15T05:25:21.516Z,216
2017-04-15T05:25:53.815Z,204
2017-04-15T05:26:26.161Z,176
2017-04-15T05:26:58.454Z,160
2017-04-15T05:27:30.764Z,156
2017-04-15T05:28:03.078Z,164
2017-04-15T05:28:35.399Z,168
2017-04-15T05:29:07.712Z,164
2017-04-15T05:29:40.022Z,156
2017-04-15T05:30:12.331Z,140
2017-04-15T05:30:44.632Z,128
2017-04-15T05:31:16.924Z,124
2017-04-15T05:31:49.313Z,132
2017-04-15T05:32:21.628Z,140
2017-04-15T05:32:53.919Z,128
2017-04-15T05:33:26.228Z,144
2017-04-15T05:33:58.537Z,148
2017-04-15T05:34:30.827Z,156
2017-04-15T05:35:03.125Z,176
2017-04-15T05:35:35.423Z,184
2017-04-15T05:36:07.728Z,176
2017-04-15T05:36:40.040Z,160
2017-04-15T05:37:12.333Z,144
2017-04-15T05:37:44.637Z,136
2017-04-15T05:38:16.937Z,140
2017-04-15T05:38:49.248Z,144
2017-04-15T05:39:21.552Z,152
2017-04-15T05:39:53.866Z,188
2017-04-15T05:40:26.154Z,236
2017-04-15T05:40:58.556Z,244
2017-04-15T05:41:30.927Z,260
2017-04-15T05:42:03.220Z,276
2017-04-15T05:42:36.197Z,328
2017-04-15T05:43:08.441Z,328
2017-04-15T05:43:40.695Z,320
2017-04-15T05:44:12.941Z,264
2017-04-15T05:44:45.185Z,216
2017-04-15T05:45:17.428Z,192
2017-04-15T05:45:49.698Z,180
2017-04-15T05:46:21.953Z,192
2017-04-15T05:46:54.199Z,208
2017-04-15T05:47:26.438Z,216
2017-04-15T05:47:58.692Z,212
2017-04-15T05:48:30.947Z,196
2017-04-15T05:49:03.190Z,232
2017-04-15T05:49:35.445Z,252
2017-04-15T05:50:07.724Z,252
2017-04-15T05:50:39.979Z,232
2017-04-15T05:51:12.232Z,220
2017-04-15T05:51:44.450Z,196
2017-04-15T05:52:16.715Z,164
2017-04-15T05:52:49.042Z,144
2017-04-15T05:53:21.369Z,136
2017-04-15T05:53:53.678Z,164
2017-04-15T05:54:25.986Z,172
2017-04-15T05:54:58.300Z,168
2017-04-15T05:55:30.620Z,160
2017-04-15T05:56:02.922Z,152
2017-04-15T05:56:35.222Z,160
2017-04-15T05:57:07.545Z,164
2017-04-15T05:57:39.873Z,180
2017-04-15T05:58:12.197Z,164
2017-04-15T05:58:44.497Z,156
2017-04-15T05:59:17.197Z,164
2017-04-15T05:59:49.502Z,180
2017-04-15T06:00:21.793Z,192
2017-04-15T06:00:54.100Z,192
2017-04-15T06:01:26.413Z,184
2017-04-15T06:01:58.730Z,168
2017-04-15T06:02:31.054Z,176
2017-04-15T06:03:03.369Z,180
2017-04-15T06:03:35.666Z,164
2017-04-15T06:04:07.989Z,164
2017-04-15T06:04:40.300Z,160
2017-04-15T06:05:12.595Z,156
2017-04-15T06:05:44.901Z,160
2017-04-15T06:06:17.205Z,172
2017-04-15T06:06:49.522Z,188
2017-04-15T06:07:21.844Z,208
2017-04-15T06:07:54.163Z,208
2017-04-15T06:08:26.460Z,212
2017-04-15T06:08:58.763Z,244
2017-04-15T06:09:31.277Z,284
2017-04-15T06:10:03.769Z,308
2017-04-15T06:10:36.069Z,340
2017-04-15T06:11:08.377Z,332
2017-04-15T06:11:40.681Z,312
2017-04-15T06:12:12.956Z,324
2017-04-15T06:12:45.199Z,316
2017-04-15T06:13:17.582Z,288
2017-04-15T06:13:49.865Z,296
2017-04-15T06:14:22.108Z,284
2017-04-15T06:14:55.212Z,296
2017-04-15T06:15:27.452Z,324
2017-04-15T06:15:59.702Z,340
2017-04-15T06:16:31.980Z,328
2017-04-15T06:17:04.235Z,352
2017-04-15T06:17:36.499Z,408
2017-04-15T06:18:08.836Z,432
2017-04-15T06:18:41.096Z,424
2017-04-15T06:19:13.501Z,412
2017-04-15T06:19:45.757Z,376
2017-04-15T06:20:19.193Z,348
2017-04-15T06:20:51.601Z,336
2017-04-15T06:21:23.852Z,316
2017-04-15T06:21:56.130Z,288
2017-04-15T06:22:28.403Z,296
2017-04-15T06:23:00.710Z,284
2017-04-15T06:23:33.024Z,336
2017-04-15T06:24:05.347Z,356
2017-04-15T06:24:37.667Z,360
2017-04-15T06:25:09.975Z,408
2017-04-15T06:25:42.283Z,456
2017-04-15T06:26:14.597Z,456
2017-04-15T06:26:46.902Z,452
2017-04-15T06:27:19.193Z,516
2017-04-15T06:27:51.602Z,532
2017-04-15T06:28:23.896Z,492
2017-04-15T06:28:56.196Z,428
2017-04-15T06:29:28.503Z,384
2017-04-15T06:30:00.802Z,352
2017-04-15T06:30:33.106Z,328
2017-04-15T06:31:05.418Z,340
2017-04-15T06:31:37.735Z,316
2017-04-15T06:32:10.043Z,368
2017-04-15T06:32:42.358Z,392
2017-04-15T06:33:14.672Z,392
2017-04-15T06:33:46.984Z,392
2017-04-15T06:34:19.333Z,372
2017-04-15T06:34:51.645Z,376
2017-04-15T06:35:23.946Z,404
2017-04-15T06:35:56.231Z,448
2017-04-15T06:36:28.535Z,412
2017-04-15T06:37:01.144Z,424
2017-04-15T06:37:33.451Z,384
2017-04-15T06:38:05.772Z,392
2017-04-15T06:38:38.105Z,356
2017-04-15T06:39:10.430Z,336
2017-04-15T06:39:42.741Z,328
2017-04-15T06:40:15.035Z,348
2017-04-15T06:40:47.335Z,320
2017-04-15T06:41:19.645Z,312
2017-04-15T06:41:51.946Z,360
2017-04-15T06:42:24.250Z,376
2017-04-15T06:42:56.564Z,380
2017-04-15T06:43:28.876Z,376
2017-04-15T06:44:01.184Z,352
2017-04-15T06:44:33.482Z,412
2017-04-15T06:45:05.778Z,436
2017-04-15T06:45:38.072Z,436
2017-04-15T06:46:10.398Z,404
2017-04-15T06:46:42.858Z,500
2017-04-15T06:47:15.161Z,632
2017-04-15T06:47:47.466Z,728
2017-04-15T06:48:19.778Z,688
2017-04-15T06:48:52.092Z,708
2017-04-15T06:49:24.401Z,736
2017-04-15T06:49:56.731Z,784
2017-04-15T06:50:29.018Z,684
2017-04-15T06:51:01.333Z,636
2017-04-15T06:51:33.644Z,668
2017-04-15T06:52:05.955Z,788
2017-04-15T06:52:38.273Z,616
2017-04-15T06:53:10.587Z,516
2017-04-15T06:53:42.906Z,560
2017-04-15T06:54:15.226Z,684
2017-04-15T06:54:47.520Z,588
2017-04-15T06:55:19.826Z,520
2017-04-15T06:55:52.127Z,496
2017-04-15T06:56:24.428Z,564
2017-04-15T06:56:56.915Z,620
2017-04-15T06:57:29.212Z,580
2017-04-15T06:58:01.517Z,612
2017-04-15T06:58:33.835Z,700
2017-04-15T06:59:06.143Z,676
2017-04-15T06:59:38.442Z,768
2017-04-15T07:00:10.733Z,724
2017-04-15T07:00:43.039Z,660
2017-04-15T07:01:15.338Z,624
2017-04-15T07:01:47.649Z,556
2017-04-15T07:02:19.974Z,512
2017-04-15T07:02:52.285Z,544
2017-04-15T07:03:24.591Z,612
2017-04-15T07:03:56.893Z,748
2017-04-15T07:04:29.200Z,944
2017-04-15T07:05:01.496Z,1028
2017-04-15T07:05:33.807Z,900
2017-04-15T07:06:06.114Z,716
2017-04-15T07:06:38.415Z,668
2017-04-15T07:07:10.735Z,824
2017-04-15T07:07:43.041Z,888
2017-04-15T07:08:15.331Z,916
2017-04-15T07:08:47.639Z,820
2017-04-15T07:09:19.946Z,812
2017-04-15T07:09:52.236Z,720
2017-04-15T07:10:24.549Z,632
2017-04-15T07:10:56.858Z,756
2017-04-15T07:11:29.154Z,664
2017-04-15T07:12:01.464Z,532
2017-04-15T07:12:33.807Z,448
2017-04-15T07:13:06.137Z,472
2017-04-15T07:13:38.459Z,512
2017-04-15T07:14:10.773Z,480
2017-04-15T07:14:43.081Z,456
2017-04-15T07:15:15.397Z,484
2017-04-15T07:15:47.729Z,428
2017-04-15T07:16:20.030Z,384
2017-04-15T07:16:52.348Z,372
2017-04-15T07:17:24.655Z,412
2017-04-15T07:17:56.957Z,404
2017-04-15T07:18:29.257Z,396
2017-04-15T07:19:01.569Z,412
2017-04-15T07:19:33.879Z,408
2017-04-15T07:20:06.201Z,396
2017-04-15T07:20:38.509Z,380
2017-04-15T07:21:10.801Z,388
2017-04-15T07:21:43.295Z,360
2017-04-15T07:22:16.301Z,368
2017-04-15T07:22:48.546Z,472
2017-04-15T07:23:20.806Z,564
2017-04-15T07:23:53.044Z,604
2017-04-15T07:24:25.299Z,724
2017-04-15T07:24:57.553Z,768
2017-04-15T07:25:29.823Z,772
2017-04-15T07:26:02.086Z,940
2017-04-15T07:26:34.334Z,1132
2017-04-15T07:27:06.598Z,1132
2017-04-15T07:27:38.850Z,1440
2017-04-15T07:28:11.093Z,1436
2017-04-15T07:28:43.357Z,1340
2017-04-15T07:29:15.638Z,1152
2017-04-15T07:29:47.891Z,1356
2017-04-15T07:30:20.146Z,1692
2017-04-15T07:30:52.375Z,1768
2017-04-15T07:31:24.614Z,1984
2017-04-15T07:31:56.955Z,1984
2017-04-15T07:32:29.337Z,1984
2017-04-15T07:33:01.629Z,1932
2017-04-15T07:33:33.926Z,1776
2017-04-15T07:34:06.241Z,1752
2017-04-15T07:34:38.557Z,1856
2017-04-15T07:35:10.869Z,2092
2017-04-15T07:35:43.165Z,2172
2017-04-15T07:36:15.476Z,2304
2017-04-15T07:36:47.786Z,2508
2017-04-15T07:37:20.077Z,2592
2017-04-15T07:37:52.384Z,2676
2017-04-15T07:38:24.701Z,2908
2017-04-15T07:38:57.025Z,2632
2017-04-15T07:39:29.335Z,2560
2017-04-15T07:40:01.636Z,2164
2017-04-15T07:40:33.948Z,1824
2017-04-15T07:41:06.243Z,1840
2017-04-15T07:41:38.543Z,1932
2017-04-15T07:42:11.161Z,2040
2017-04-15T07:42:43.567Z,2648
2017-04-15T07:43:15.877Z,2376
2017-04-15T07:43:48.333Z,2780